• Join FlightAware (Why Join?)
  • Login
  • US Flag 
02:09AM EDT


 

Airport Tracker/Info


-or-


 

Live Flight TrackerFlight Track Log ✈ UAL4498 ✈ 19-Apr-2013 ✈ KEWR - KIND

Flight Track Log - Related Links

Times and Time Zones

All times are in EDT time to prevent confusion due to time zone crossing. See the UAL4498 flight status page for this flight to view local times or setup timezone preferences in your user account.

Time Position Orientation Groundspeed Altitude Reporting Facility
EDT Latitude Longitude Course Direction KTS MPH feet Rate Location/Type
10:52AM 40.6392 -74.1894 276° West 180 207 2,100  Level New York Center
10:52AM 40.6350 -74.2658 266° West 234 269 4,300 2,460 Climbing New York Center
10:53AM 40.6639 -74.3414 297° West 274 315 7,000 2,700 Climbing New York Center
10:55AM 40.6833 -74.4500 283° West 258 297 10,300 1,800 Climbing New York TRACON
10:56AM 40.7189 -74.6425 284° West 307 353 12,500 1,320 Climbing New York Center
10:57AM 40.7591 -74.8173 276° West  Level FlightAware Approximate
10:57AM 40.7383 -74.7506 283° West 332 382 14,000  Level New York Center
10:59AM 40.7628 -74.8833 284° West 337 388 15,600 1,380 Climbing New York Center
11:00AM 40.7833 -75.0136 282° West 347 399 16,900 1,200 Climbing New York Center
11:01AM 40.8017 -75.1408 281° West 360 414 18,100 1,200 Climbing New York Center
11:01AM 40.7783 -75.2572 255° West 353 406 19,300 1,260 Climbing New York Center
11:02AM 40.7361 -75.3858 247° West 348 400 20,600 1,200 Climbing New York Center
11:04AM 40.6978 -75.5092 248° West 358 412 21,800 1,020 Climbing New York Center
11:05AM 40.6636 -75.6353 250° West 368 423 22,700 840 Climbing New York Center
11:05AM 40.6228 -75.7608 247° West 368 423 23,500 1,020 Climbing New York Center
11:07AM 40.5800 -75.8836 245° Southwest 368 423 24,800 1,260 Climbing New York Center
11:08AM 40.5358 -75.9922 242° Southwest 376 433 26,100 1,380 Climbing New York Center
11:08AM 40.4911 -76.1061 243° Southwest 370 426 27,600 960 Climbing New York Center
11:09AM 40.4481 -76.2256 245° Southwest 364 419 28,100 1,020 Climbing New York Center
11:10AM 40.4008 -76.3419 242° Southwest 364 419 29,700 1,560 Climbing New York Center
11:11AM 40.3581 -76.4556 244° Southwest 359 413 31,300 1,620 Climbing New York Center
11:12AM 40.3294 -76.5703 252° West 354 407 33,000 1,500 Climbing New York Center
11:14AM 40.3047 -76.6715 260° West  Level FlightAware Approximate
11:14AM 40.3131 -76.6914 260° West 337 388 34,400  Level New York Center
11:15AM 40.2969 -76.8017 259° West 326 375 35,700 780 Climbing New York Center
11:15AM 40.2789 -76.9117 258° West 320 368 36,000 120 Climbing New York Center
11:17AM 40.2600 -77.0325 258° West 330 380 36,000  Level New York Center
11:17AM 40.2406 -77.1614 259° West 349 402 36,000  Level New York Center
11:19AM 40.1989 -77.4408 259° West 384 442 36,000  Level Cleveland Center
11:20AM 40.1775 -77.5775 258° West 390 449 36,000  Level Cleveland Center
11:21AM 40.1561 -77.7172 259° West 390 449 36,000  Level Cleveland Center
11:22AM 40.1386 -77.8536 261° West 390 449 36,000  Level Cleveland Center
11:23AM 40.1378 -77.9894 270° West 401 461 36,000  Level Cleveland Center
11:24AM 40.1367 -78.1336 269° West 406 467 36,000  Level Cleveland Center
11:25AM 40.1397 -78.2828 272° West 406 467 36,000  Level Cleveland Center
11:26AM 40.1406 -78.4267 270° West 406 467 36,000  Level Cleveland Center
11:27AM 40.1411 -78.5733 270° West 401 461 36,000  Level Cleveland Center
11:28AM 40.1417 -78.7200 270° West 401 461 36,000  Level Cleveland Center
11:29AM 40.1419 -78.8694 270° West 401 461 36,000  Level Cleveland Center
11:30AM 40.1419 -79.0161 270° West 401 461 36,000  Level Cleveland Center
11:31AM 40.1439 -79.1600 271° West 401 461 36,000  Level Cleveland Center
11:32AM 40.1456 -79.3039 271° West 401 461 36,000  Level Cleveland Center
11:33AM 40.1511 -79.4503 273° West 401 461 36,000  Level Cleveland Center
11:34AM 40.1525 -79.5944 271° West 401 461 36,000  Level Cleveland Center
11:35AM 40.1558 -79.7411 272° West 401 461 36,000  Level Cleveland Center
11:36AM 40.1589 -79.8878 272° West 401 461 36,000  Level Cleveland Center
11:37AM 40.1617 -80.0317 271° West 401 461 36,000  Level Cleveland Center
11:38AM 40.1644 -80.1703 272° West 401 461 36,000  Level Cleveland Center
11:39AM 40.1647 -80.3142 270° West 401 461 36,000  Level Cleveland Center
11:40AM 40.1672 -80.4717 271° West 401 461 36,000  Level Cleveland Center
11:41AM 40.1692 -80.6183 271° West 408 470 36,000  Level Cleveland Center
11:42AM 40.1692 -80.7650 270° West 408 470 36,000  Level Cleveland Center
11:43AM 40.1708 -80.8956 271° West 408 470 36,000  Level Cleveland Center
11:46AM 40.1711 -81.2483 270° West 391 450 36,000  Level Indianapolis Center
11:47AM 40.1694 -81.3944 269° West 396 456 36,000  Level Indianapolis Center
11:48AM 40.1669 -81.5353 269° West 387 445 36,000  Level Indianapolis Center
11:49AM 40.1686 -81.6750 271° West 381 438 36,000  Level Indianapolis Center
11:50AM 40.1786 -81.8256 275° West 379 436 36,000  Level Indianapolis Center
11:51AM 40.1869 -81.9669 274° West 385 443 36,000  Level Indianapolis Center
11:52AM 40.1953 -82.1114 274° West 395 455 36,000  Level Indianapolis Center
11:53AM 40.2033 -82.2567 274° West 397 457 36,000  Level Indianapolis Center
11:54AM 40.2106 -82.4008 274° West 394 453 36,000 -720 Level Indianapolis Center
11:55AM 40.2206 -82.5656 275° West 390 449 34,600 -1,620 Descending Indianapolis Center
11:56AM 40.2267 -82.7028 273° West 378 435 32,700 -1,980 Descending Indianapolis Center
11:57AM 40.2336 -82.8522 274° West 402 463 30,600 -1,380 Descending Indianapolis Center
11:58AM 40.2414 -82.9992 274° West 403 464 29,900 -300 Descending Indianapolis Center
11:59AM 40.2489 -83.1447 274° West 402 463 30,000  Climbing Indianapolis Center
12:00PM 40.2556 -83.2886 274° West 397 457 30,000  Level Indianapolis Center
12:01PM 40.2619 -83.4325 273° West 395 455 30,000  Level Indianapolis Center
12:02PM 40.2681 -83.5750 273° West 393 452 30,000  Level Indianapolis Center
12:03PM 40.2761 -83.7422 274° West 394 453 30,000  Level Indianapolis Center
12:04PM 40.2681 -83.8797 266° West 377 434 30,000  Level Indianapolis Center
12:05PM 40.2556 -84.0164 263° West 376 433 30,000  Level Indianapolis Center
12:06PM 40.2444 -84.1517 264° West 374 430 30,000  Level Indianapolis Center
12:08PM 40.2331 -84.2869 264° West 373 429 30,000 -780 Level Indianapolis Center
12:09PM 40.2214 -84.4197 263° West 368 423 28,400 -1,800 Descending Indianapolis Center
12:10PM 40.2092 -84.5517 263° West 364 419 26,400 -1,980 Descending Indianapolis Center
12:11PM 40.1964 -84.6828 263° West 361 415 24,400 -2,160 Descending Indianapolis Center
12:12PM 40.1844 -84.8272 264° West 341 392 22,000 -2,160 Descending Indianapolis Center
12:13PM 40.1736 -84.9414 263° West 318 366 20,000 -2,100 Descending Indianapolis Center
12:14PM 40.1647 -85.0578 264° West 319 367 17,700 -2,100 Descending Indianapolis Center
12:16PM 40.1403 -85.2900 262° West 318 366 13,700 -1,980 Descending Indianapolis Center
12:17PM 40.1294 -85.3978 263° West 305 351 11,700 -1,380 Descending Indianapolis Center
12:18PM 40.1092 -85.5050 256° West 300 345 10,900 -420 Descending Indianapolis Center
12:19PM 40.0831 -85.6256 254° West 302 348 10,900  Level Indianapolis Center
12:20PM 40.0564 -85.7236 250° West 311 358 10,900 -540 Level Indianapolis Center
12:21PM 40.0347 -85.8222 254° West 289 333 9,800 -960 Descending Indianapolis Center
12:22PM 40.0144 -85.9089 253° West 265 305 9,000 -1,800 Descending Indianapolis Center
12:24PM 39.9167 -86.0333 224° Southwest 236 272 4,600 -1,680 Descending Indianapolis TRACON
12:25PM 39.8667 -86.0833 218° Southwest 224 258 4,000 -300 Descending Indianapolis TRACON
12:26PM 39.8333 -86.1333 229° Southwest 192 221 4,000 -540 Level Indianapolis TRACON
12:27PM 39.8000 -86.1833 229° Southwest 195 224 3,000 -960 Descending Indianapolis TRACON
12:28PM 39.7667 -86.2167 218° Southwest 158 182 2,100 -900 Descending Indianapolis TRACON
12:29PM 39.7333 -86.2667 229° Southwest 138 159 1,300 -840 Descending Indianapolis TRACON
12:31PM 39.7167 -86.2833 270° West  Level FlightAware Approximate
12:38PM 39.7173 -86.2947 270° West  Level Estimated